sensor_id;sensor_type;location;lat;lon;timestamp;P1;durP1;ratioP1;P2;durP2;ratioP2
52786;SDS011;38661;53.152;5.846;2023-02-03T00:00:35;6.90;;;2.25;;
52786;SDS011;38661;53.152;5.846;2023-02-03T00:03:00;7.72;;;2.33;;
52786;SDS011;38661;53.152;5.846;2023-02-03T00:05:26;8.30;;;2.33;;
52786;SDS011;38661;53.152;5.846;2023-02-03T00:07:53;12.50;;;2.40;;
52786;SDS011;38661;53.152;5.846;2023-02-03T00:10:19;11.35;;;2.42;;
52786;SDS011;38661;53.152;5.846;2023-02-03T00:12:48;10.00;;;2.17;;
52786;SDS011;38661;53.152;5.846;2023-02-03T00:15:16;7.63;;;2.28;;
52786;SDS011;38661;53.152;5.846;2023-02-03T00:17:43;15.65;;;3.55;;
52786;SDS011;38661;53.152;5.846;2023-02-03T00:20:09;9.65;;;2.10;;
52786;SDS011;38661;53.152;5.846;2023-02-03T00:22:35;10.13;;;2.55;;
52786;SDS011;38661;53.152;5.846;2023-02-03T00:25:01;9.25;;;2.65;;
52786;SDS011;38661;53.152;5.846;2023-02-03T00:27:28;17.48;;;3.22;;
52786;SDS011;38661;53.152;5.846;2023-02-03T00:29:53;14.20;;;2.60;;
52786;SDS011;38661;53.152;5.846;2023-02-03T00:32:19;11.32;;;2.78;;
52786;SDS011;38661;53.152;5.846;2023-02-03T00:34:45;8.48;;;2.10;;
52786;SDS011;38661;53.152;5.846;2023-02-03T00:37:11;14.43;;;3.15;;
52786;SDS011;38661;53.152;5.846;2023-02-03T00:39:37;7.78;;;3.33;;
52786;SDS011;38661;53.152;5.846;2023-02-03T00:42:03;9.73;;;2.88;;
52786;SDS011;38661;53.152;5.846;2023-02-03T00:44:30;16.13;;;3.72;;
52786;SDS011;38661;53.152;5.846;2023-02-03T00:46:56;10.05;;;2.65;;
52786;SDS011;38661;53.152;5.846;2023-02-03T00:49:22;10.65;;;2.97;;
52786;SDS011;38661;53.152;5.846;2023-02-03T00:51:47;16.17;;;4.50;;
52786;SDS011;38661;53.152;5.846;2023-02-03T00:54:13;13.32;;;2.50;;
52786;SDS011;38661;53.152;5.846;2023-02-03T00:56:39;8.98;;;2.20;;
52786;SDS011;38661;53.152;5.846;2023-02-03T00:59:05;11.60;;;4.05;;
52786;SDS011;38661;53.152;5.846;2023-02-03T01:01:31;14.48;;;4.15;;
52786;SDS011;38661;53.152;5.846;2023-02-03T01:04:00;12.00;;;3.13;;
52786;SDS011;38661;53.152;5.846;2023-02-03T01:06:26;11.00;;;2.60;;
52786;SDS011;38661;53.152;5.846;2023-02-03T01:08:52;11.05;;;2.90;;
52786;SDS011;38661;53.152;5.846;2023-02-03T01:11:19;20.45;;;4.45;;
52786;SDS011;38661;53.152;5.846;2023-02-03T01:13:50;11.88;;;3.80;;
52786;SDS011;38661;53.152;5.846;2023-02-03T01:16:17;14.50;;;3.47;;
52786;SDS011;38661;53.152;5.846;2023-02-03T01:18:44;10.45;;;2.78;;
52786;SDS011;38661;53.152;5.846;2023-02-03T01:21:11;12.80;;;3.40;;
52786;SDS011;38661;53.152;5.846;2023-02-03T01:23:39;10.35;;;2.90;;
52786;SDS011;38661;53.152;5.846;2023-02-03T01:26:06;13.95;;;4.28;;
52786;SDS011;38661;53.152;5.846;2023-02-03T01:28:33;14.30;;;3.20;;
52786;SDS011;38661;53.152;5.846;2023-02-03T01:33:34;14.48;;;4.15;;
52786;SDS011;38661;53.152;5.846;2023-02-03T01:36:00;12.15;;;2.58;;
52786;SDS011;38661;53.152;5.846;2023-02-03T01:38:26;9.93;;;3.28;;
52786;SDS011;38661;53.152;5.846;2023-02-03T01:40:51;19.30;;;4.15;;
52786;SDS011;38661;53.152;5.846;2023-02-03T01:43:34;11.45;;;3.15;;
52786;SDS011;38661;53.152;5.846;2023-02-03T01:46:03;10.98;;;3.00;;
52786;SDS011;38661;53.152;5.846;2023-02-03T01:48:50;16.45;;;3.38;;
52786;SDS011;38661;53.152;5.846;2023-02-03T01:51:37;11.85;;;2.88;;
52786;SDS011;38661;53.152;5.846;2023-02-03T01:54:06;12.07;;;2.90;;
52786;SDS011;38661;53.152;5.846;2023-02-03T01:57:03;8.63;;;2.47;;
52786;SDS011;38661;53.152;5.846;2023-02-03T01:59:35;14.43;;;3.67;;
52786;SDS011;38661;53.152;5.846;2023-02-03T02:02:02;13.70;;;3.42;;
52786;SDS011;38661;53.152;5.846;2023-02-03T02:04:31;13.32;;;3.30;;
52786;SDS011;38661;53.152;5.846;2023-02-03T02:07:22;11.80;;;2.88;;
52786;SDS011;38661;53.152;5.846;2023-02-03T02:09:48;12.32;;;3.50;;
52786;SDS011;38661;53.152;5.846;2023-02-03T02:12:14;9.95;;;3.10;;
52786;SDS011;38661;53.152;5.846;2023-02-03T02:14:40;12.88;;;3.17;;
52786;SDS011;38661;53.152;5.846;2023-02-03T02:17:13;16.48;;;3.00;;
52786;SDS011;38661;53.152;5.846;2023-02-03T02:25:02;10.75;;;3.05;;
52786;SDS011;38661;53.152;5.846;2023-02-03T02:33:40;9.20;;;3.05;;
52786;SDS011;38661;53.152;5.846;2023-02-03T02:36:22;13.13;;;3.60;;
52786;SDS011;38661;53.152;5.846;2023-02-03T02:39:06;19.13;;;3.95;;
52786;SDS011;38661;53.152;5.846;2023-02-03T02:41:38;10.73;;;2.80;;
52786;SDS011;38661;53.152;5.846;2023-02-03T02:44:14;17.83;;;4.97;;
52786;SDS011;38661;53.152;5.846;2023-02-03T02:46:51;11.65;;;3.38;;
52786;SDS011;38661;53.152;5.846;2023-02-03T02:49:24;11.32;;;3.20;;
52786;SDS011;38661;53.152;5.846;2023-02-03T02:52:24;15.77;;;4.03;;
52786;SDS011;38661;53.152;5.846;2023-02-03T02:54:56;15.10;;;3.42;;
52786;SDS011;38661;53.152;5.846;2023-02-03T02:57:26;13.57;;;3.40;;
52786;SDS011;38661;53.152;5.846;2023-02-03T02:59:55;18.63;;;4.30;;
52786;SDS011;38661;53.152;5.846;2023-02-03T03:02:21;10.98;;;3.25;;
52786;SDS011;38661;53.152;5.846;2023-02-03T03:04:46;12.65;;;3.60;;
52786;SDS011;38661;53.152;5.846;2023-02-03T03:07:22;12.15;;;3.72;;
52786;SDS011;38661;53.152;5.846;2023-02-03T03:09:57;14.60;;;3.17;;
52786;SDS011;38661;53.152;5.846;2023-02-03T03:12:30;17.02;;;3.30;;
52786;SDS011;38661;53.152;5.846;2023-02-03T03:15:01;14.40;;;3.38;;
52786;SDS011;38661;53.152;5.846;2023-02-03T03:17:32;17.25;;;3.67;;
52786;SDS011;38661;53.152;5.846;2023-02-03T03:20:03;16.10;;;3.50;;
52786;SDS011;38661;53.152;5.846;2023-02-03T03:22:34;11.43;;;3.25;;
52786;SDS011;38661;53.152;5.846;2023-02-03T03:25:05;20.52;;;3.25;;
52786;SDS011;38661;53.152;5.846;2023-02-03T03:27:37;16.00;;;4.40;;
52786;SDS011;38661;53.152;5.846;2023-02-03T03:30:10;15.10;;;4.28;;
52786;SDS011;38661;53.152;5.846;2023-02-03T03:32:42;7.47;;;2.80;;
52786;SDS011;38661;53.152;5.846;2023-02-03T03:35:08;16.90;;;3.78;;
52786;SDS011;38661;53.152;5.846;2023-02-03T03:37:46;10.95;;;3.53;;
52786;SDS011;38661;53.152;5.846;2023-02-03T03:40:28;12.57;;;3.25;;
52786;SDS011;38661;53.152;5.846;2023-02-03T03:43:02;16.52;;;3.53;;
52786;SDS011;38661;53.152;5.846;2023-02-03T03:45:36;10.27;;;3.47;;
52786;SDS011;38661;53.152;5.846;2023-02-03T03:48:28;11.65;;;2.95;;
52786;SDS011;38661;53.152;5.846;2023-02-03T03:51:20;19.88;;;4.10;;
52786;SDS011;38661;53.152;5.846;2023-02-03T03:54:11;15.52;;;3.50;;
52786;SDS011;38661;53.152;5.846;2023-02-03T03:59:24;12.38;;;3.35;;
52786;SDS011;38661;53.152;5.846;2023-02-03T04:01:53;14.57;;;3.58;;
52786;SDS011;38661;53.152;5.846;2023-02-03T04:04:19;13.55;;;3.17;;
52786;SDS011;38661;53.152;5.846;2023-02-03T04:06:47;13.77;;;2.78;;
52786;SDS011;38661;53.152;5.846;2023-02-03T04:09:12;10.85;;;2.95;;
52786;SDS011;38661;53.152;5.846;2023-02-03T04:11:38;10.60;;;2.75;;
52786;SDS011;38661;53.152;5.846;2023-02-03T04:14:22;11.88;;;2.33;;
52786;SDS011;38661;53.152;5.846;2023-02-03T04:16:48;16.20;;;3.58;;
52786;SDS011;38661;53.152;5.846;2023-02-03T04:19:14;13.95;;;3.50;;
52786;SDS011;38661;53.152;5.846;2023-02-03T04:21:39;11.85;;;2.40;;
52786;SDS011;38661;53.152;5.846;2023-02-03T04:24:05;13.80;;;2.55;;
52786;SDS011;38661;53.152;5.846;2023-02-03T04:26:31;13.43;;;2.90;;
52786;SDS011;38661;53.152;5.846;2023-02-03T04:28:56;8.40;;;2.70;;
52786;SDS011;38661;53.152;5.846;2023-02-03T04:31:22;14.32;;;2.75;;
52786;SDS011;38661;53.152;5.846;2023-02-03T04:33:48;14.77;;;3.25;;
52786;SDS011;38661;53.152;5.846;2023-02-03T04:36:13;12.82;;;3.63;;
52786;SDS011;38661;53.152;5.846;2023-02-03T04:38:39;13.90;;;3.60;;
52786;SDS011;38661;53.152;5.846;2023-02-03T04:41:05;8.65;;;2.58;;
52786;SDS011;38661;53.152;5.846;2023-02-03T04:43:30;14.88;;;3.05;;
52786;SDS011;38661;53.152;5.846;2023-02-03T04:45:58;15.13;;;3.63;;
52786;SDS011;38661;53.152;5.846;2023-02-03T04:48:25;13.07;;;3.58;;
52786;SDS011;38661;53.152;5.846;2023-02-03T04:50:50;17.38;;;4.70;;
52786;SDS011;38661;53.152;5.846;2023-02-03T04:53:16;21.75;;;3.53;;
52786;SDS011;38661;53.152;5.846;2023-02-03T04:55:45;13.60;;;3.00;;
52786;SDS011;38661;53.152;5.846;2023-02-03T04:58:14;13.75;;;4.30;;
52786;SDS011;38661;53.152;5.846;2023-02-03T05:00:39;13.60;;;3.47;;
52786;SDS011;38661;53.152;5.846;2023-02-03T05:03:05;11.05;;;2.67;;
52786;SDS011;38661;53.152;5.846;2023-02-03T05:05:31;13.30;;;2.25;;
52786;SDS011;38661;53.152;5.846;2023-02-03T05:07:56;17.30;;;3.53;;
52786;SDS011;38661;53.152;5.846;2023-02-03T05:10:22;9.93;;;2.58;;
52786;SDS011;38661;53.152;5.846;2023-02-03T05:12:47;18.05;;;3.90;;
52786;SDS011;38661;53.152;5.846;2023-02-03T05:15:13;21.67;;;4.30;;
52786;SDS011;38661;53.152;5.846;2023-02-03T05:17:39;16.27;;;3.42;;
52786;SDS011;38661;53.152;5.846;2023-02-03T05:20:06;16.73;;;3.22;;
52786;SDS011;38661;53.152;5.846;2023-02-03T05:22:32;19.45;;;4.43;;
52786;SDS011;38661;53.152;5.846;2023-02-03T05:24:59;18.40;;;3.47;;
52786;SDS011;38661;53.152;5.846;2023-02-03T05:27:26;13.15;;;3.20;;
52786;SDS011;38661;53.152;5.846;2023-02-03T05:29:51;12.65;;;3.53;;
52786;SDS011;38661;53.152;5.846;2023-02-03T05:32:17;15.63;;;4.72;;
52786;SDS011;38661;53.152;5.846;2023-02-03T05:34:43;10.15;;;3.15;;
52786;SDS011;38661;53.152;5.846;2023-02-03T05:37:09;16.67;;;4.20;;
52786;SDS011;38661;53.152;5.846;2023-02-03T05:39:34;13.15;;;3.67;;
52786;SDS011;38661;53.152;5.846;2023-02-03T05:42:00;19.48;;;4.05;;
52786;SDS011;38661;53.152;5.846;2023-02-03T05:44:27;14.05;;;3.30;;
52786;SDS011;38661;53.152;5.846;2023-02-03T05:46:53;13.10;;;3.08;;
52786;SDS011;38661;53.152;5.846;2023-02-03T05:49:20;14.63;;;4.32;;
52786;SDS011;38661;53.152;5.846;2023-02-03T05:51:47;11.25;;;3.20;;
52786;SDS011;38661;53.152;5.846;2023-02-03T05:54:14;11.95;;;2.63;;
52786;SDS011;38661;53.152;5.846;2023-02-03T05:56:40;13.40;;;3.75;;
52786;SDS011;38661;53.152;5.846;2023-02-03T05:59:05;12.90;;;2.83;;
52786;SDS011;38661;53.152;5.846;2023-02-03T06:01:32;12.13;;;3.28;;
52786;SDS011;38661;53.152;5.846;2023-02-03T06:03:58;9.98;;;2.58;;
52786;SDS011;38661;53.152;5.846;2023-02-03T06:06:24;13.45;;;3.40;;
52786;SDS011;38661;53.152;5.846;2023-02-03T06:08:57;12.75;;;4.40;;
52786;SDS011;38661;53.152;5.846;2023-02-03T06:11:28;16.00;;;4.10;;
52786;SDS011;38661;53.152;5.846;2023-02-03T06:13:54;13.43;;;3.03;;
52786;SDS011;38661;53.152;5.846;2023-02-03T06:16:22;15.50;;;3.55;;
52786;SDS011;38661;53.152;5.846;2023-02-03T06:18:49;15.90;;;3.83;;
52786;SDS011;38661;53.152;5.846;2023-02-03T06:21:16;14.27;;;3.67;;
52786;SDS011;38661;53.152;5.846;2023-02-03T06:23:42;20.50;;;4.00;;
52786;SDS011;38661;53.152;5.846;2023-02-03T06:26:07;16.73;;;4.05;;
52786;SDS011;38661;53.152;5.846;2023-02-03T06:28:33;22.55;;;3.58;;
52786;SDS011;38661;53.152;5.846;2023-02-03T06:30:59;14.95;;;3.65;;
52786;SDS011;38661;53.152;5.846;2023-02-03T06:33:25;21.52;;;4.55;;
52786;SDS011;38661;53.152;5.846;2023-02-03T06:35:52;12.50;;;4.53;;
52786;SDS011;38661;53.152;5.846;2023-02-03T06:38:18;10.55;;;2.45;;
52786;SDS011;38661;53.152;5.846;2023-02-03T06:40:47;20.20;;;4.60;;
52786;SDS011;38661;53.152;5.846;2023-02-03T06:43:13;18.17;;;5.00;;
52786;SDS011;38661;53.152;5.846;2023-02-03T06:45:45;15.25;;;3.22;;
52786;SDS011;38661;53.152;5.846;2023-02-03T06:48:11;12.65;;;3.60;;
52786;SDS011;38661;53.152;5.846;2023-02-03T06:50:38;10.70;;;3.10;;
52786;SDS011;38661;53.152;5.846;2023-02-03T06:53:04;20.30;;;4.13;;
52786;SDS011;38661;53.152;5.846;2023-02-03T06:55:29;9.40;;;3.50;;
52786;SDS011;38661;53.152;5.846;2023-02-03T06:57:55;12.63;;;3.70;;
52786;SDS011;38661;53.152;5.846;2023-02-03T07:00:21;17.55;;;3.70;;
52786;SDS011;38661;53.152;5.846;2023-02-03T07:02:51;16.23;;;4.38;;
52786;SDS011;38661;53.152;5.846;2023-02-03T07:05:19;15.88;;;4.85;;
52786;SDS011;38661;53.152;5.846;2023-02-03T07:07:45;17.30;;;4.32;;
52786;SDS011;38661;53.152;5.846;2023-02-03T07:10:10;17.88;;;4.57;;
52786;SDS011;38661;53.152;5.846;2023-02-03T07:12:36;11.75;;;3.53;;
52786;SDS011;38661;53.152;5.846;2023-02-03T07:15:03;16.52;;;4.25;;
52786;SDS011;38661;53.152;5.846;2023-02-03T07:17:29;20.10;;;4.97;;
52786;SDS011;38661;53.152;5.846;2023-02-03T07:19:55;24.08;;;4.15;;
52786;SDS011;38661;53.152;5.846;2023-02-03T07:22:20;20.10;;;4.80;;
52786;SDS011;38661;53.152;5.846;2023-02-03T07:24:46;27.33;;;5.50;;
52786;SDS011;38661;53.152;5.846;2023-02-03T07:27:12;25.83;;;4.55;;
52786;SDS011;38661;53.152;5.846;2023-02-03T07:29:37;14.35;;;3.25;;
52786;SDS011;38661;53.152;5.846;2023-02-03T07:32:03;15.45;;;4.47;;
52786;SDS011;38661;53.152;5.846;2023-02-03T07:34:29;21.73;;;4.20;;
52786;SDS011;38661;53.152;5.846;2023-02-03T07:36:55;15.68;;;3.72;;
52786;SDS011;38661;53.152;5.846;2023-02-03T07:39:21;26.08;;;5.53;;
52786;SDS011;38661;53.152;5.846;2023-02-03T07:41:47;21.42;;;5.63;;
52786;SDS011;38661;53.152;5.846;2023-02-03T07:44:12;24.23;;;4.63;;
52786;SDS011;38661;53.152;5.846;2023-02-03T07:46:38;25.50;;;6.35;;
52786;SDS011;38661;53.152;5.846;2023-02-03T07:49:09;19.40;;;4.40;;
52786;SDS011;38661;53.152;5.846;2023-02-03T07:51:38;17.00;;;3.35;;
52786;SDS011;38661;53.152;5.846;2023-02-03T07:54:04;29.10;;;5.70;;
52786;SDS011;38661;53.152;5.846;2023-02-03T07:56:30;22.80;;;5.18;;
52786;SDS011;38661;53.152;5.846;2023-02-03T07:58:57;19.98;;;4.90;;
52786;SDS011;38661;53.152;5.846;2023-02-03T08:01:26;18.75;;;4.68;;
52786;SDS011;38661;53.152;5.846;2023-02-03T08:03:52;22.20;;;4.57;;
52786;SDS011;38661;53.152;5.846;2023-02-03T08:06:17;27.58;;;5.97;;
52786;SDS011;38661;53.152;5.846;2023-02-03T08:08:43;16.83;;;4.97;;
52786;SDS011;38661;53.152;5.846;2023-02-03T08:11:09;24.42;;;5.13;;
52786;SDS011;38661;53.152;5.846;2023-02-03T08:13:35;20.35;;;4.35;;
52786;SDS011;38661;53.152;5.846;2023-02-03T08:16:00;26.70;;;5.72;;
52786;SDS011;38661;53.152;5.846;2023-02-03T08:18:26;17.85;;;4.88;;
52786;SDS011;38661;53.152;5.846;2023-02-03T08:20:52;23.23;;;5.40;;
52786;SDS011;38661;53.152;5.846;2023-02-03T08:23:18;25.88;;;7.05;;
52786;SDS011;38661;53.152;5.846;2023-02-03T08:25:43;28.05;;;5.93;;
52786;SDS011;38661;53.152;5.846;2023-02-03T08:28:09;25.25;;;5.55;;
52786;SDS011;38661;53.152;5.846;2023-02-03T08:30:35;27.40;;;5.57;;
52786;SDS011;38661;53.152;5.846;2023-02-03T08:33:00;26.00;;;6.00;;
52786;SDS011;38661;53.152;5.846;2023-02-03T08:35:26;17.58;;;5.70;;
52786;SDS011;38661;53.152;5.846;2023-02-03T08:37:52;20.40;;;5.25;;
52786;SDS011;38661;53.152;5.846;2023-02-03T08:40:18;23.45;;;5.93;;
52786;SDS011;38661;53.152;5.846;2023-02-03T08:42:44;29.08;;;8.18;;
52786;SDS011;38661;53.152;5.846;2023-02-03T08:45:10;22.55;;;4.88;;
52786;SDS011;38661;53.152;5.846;2023-02-03T08:47:35;28.10;;;6.50;;
52786;SDS011;38661;53.152;5.846;2023-02-03T08:50:03;26.83;;;5.68;;
52786;SDS011;38661;53.152;5.846;2023-02-03T08:52:30;26.52;;;6.28;;
52786;SDS011;38661;53.152;5.846;2023-02-03T08:54:55;21.88;;;5.90;;
52786;SDS011;38661;53.152;5.846;2023-02-03T08:57:21;33.72;;;8.15;;
52786;SDS011;38661;53.152;5.846;2023-02-03T08:59:47;30.38;;;6.57;;
52786;SDS011;38661;53.152;5.846;2023-02-03T09:02:14;21.00;;;6.45;;
52786;SDS011;38661;53.152;5.846;2023-02-03T09:04:42;30.40;;;6.82;;
52786;SDS011;38661;53.152;5.846;2023-02-03T09:07:08;40.67;;;7.93;;
52786;SDS011;38661;53.152;5.846;2023-02-03T09:09:35;19.33;;;5.45;;
52786;SDS011;38661;53.152;5.846;2023-02-03T09:12:00;22.58;;;5.43;;
52786;SDS011;38661;53.152;5.846;2023-02-03T09:14:27;33.72;;;6.47;;
52786;SDS011;38661;53.152;5.846;2023-02-03T09:16:54;24.63;;;6.18;;
52786;SDS011;38661;53.152;5.846;2023-02-03T09:19:19;22.08;;;6.53;;
52786;SDS011;38661;53.152;5.846;2023-02-03T09:21:45;18.15;;;4.05;;
52786;SDS011;38661;53.152;5.846;2023-02-03T09:24:13;19.85;;;4.53;;
52786;SDS011;38661;53.152;5.846;2023-02-03T09:26:39;22.83;;;6.75;;
52786;SDS011;38661;53.152;5.846;2023-02-03T09:29:05;19.00;;;4.80;;
52786;SDS011;38661;53.152;5.846;2023-02-03T09:31:31;20.95;;;6.25;;
52786;SDS011;38661;53.152;5.846;2023-02-03T09:33:58;26.80;;;4.93;;
52786;SDS011;38661;53.152;5.846;2023-02-03T09:36:24;23.33;;;5.47;;
52786;SDS011;38661;53.152;5.846;2023-02-03T09:38:51;20.95;;;5.10;;
52786;SDS011;38661;53.152;5.846;2023-02-03T09:44:24;20.15;;;5.05;;
52786;SDS011;38661;53.152;5.846;2023-02-03T09:47:02;19.80;;;4.53;;
52786;SDS011;38661;53.152;5.846;2023-02-03T09:49:37;16.50;;;4.25;;
52786;SDS011;38661;53.152;5.846;2023-02-03T09:52:22;18.23;;;5.22;;
52786;SDS011;38661;53.152;5.846;2023-02-03T09:57:23;23.38;;;4.70;;
52786;SDS011;38661;53.152;5.846;2023-02-03T09:59:51;18.65;;;4.38;;
52786;SDS011;38661;53.152;5.846;2023-02-03T10:05:17;22.13;;;4.53;;
52786;SDS011;38661;53.152;5.846;2023-02-03T10:13:41;27.70;;;5.45;;
52786;SDS011;38661;53.152;5.846;2023-02-03T10:19:15;22.10;;;5.47;;
52786;SDS011;38661;53.152;5.846;2023-02-03T10:22:07;30.20;;;6.50;;
52786;SDS011;38661;53.152;5.846;2023-02-03T10:24:37;27.65;;;5.93;;
52786;SDS011;38661;53.152;5.846;2023-02-03T10:27:17;15.98;;;4.95;;
52786;SDS011;38661;53.152;5.846;2023-02-03T10:29:47;25.58;;;6.03;;
52786;SDS011;38661;53.152;5.846;2023-02-03T10:32:42;25.48;;;6.18;;
52786;SDS011;38661;53.152;5.846;2023-02-03T10:35:13;21.48;;;5.22;;
52786;SDS011;38661;53.152;5.846;2023-02-03T10:37:43;26.70;;;6.32;;
52786;SDS011;38661;53.152;5.846;2023-02-03T10:40:13;26.07;;;6.13;;
52786;SDS011;38661;53.152;5.846;2023-02-03T10:42:41;21.90;;;5.28;;
52786;SDS011;38661;53.152;5.846;2023-02-03T10:45:27;32.75;;;5.75;;
52786;SDS011;38661;53.152;5.846;2023-02-03T10:47:55;25.38;;;6.07;;
52786;SDS011;38661;53.152;5.846;2023-02-03T10:50:23;26.33;;;7.47;;
52786;SDS011;38661;53.152;5.846;2023-02-03T10:55:44;33.00;;;7.97;;
52786;SDS011;38661;53.152;5.846;2023-02-03T10:58:24;26.48;;;6.43;;
52786;SDS011;38661;53.152;5.846;2023-02-03T11:01:26;38.90;;;8.23;;
52786;SDS011;38661;53.152;5.846;2023-02-03T11:03:59;31.40;;;6.65;;
52786;SDS011;38661;53.152;5.846;2023-02-03T11:06:28;36.20;;;8.02;;
52786;SDS011;38661;53.152;5.846;2023-02-03T11:08:54;19.83;;;5.68;;
52786;SDS011;38661;53.152;5.846;2023-02-03T11:13:46;28.92;;;6.53;;
52786;SDS011;38661;53.152;5.846;2023-02-03T11:16:34;38.30;;;7.55;;
52786;SDS011;38661;53.152;5.846;2023-02-03T11:19:01;32.13;;;6.65;;
52786;SDS011;38661;53.152;5.846;2023-02-03T11:26:42;27.83;;;6.68;;
52786;SDS011;38661;53.152;5.846;2023-02-03T11:29:15;31.30;;;9.93;;
52786;SDS011;38661;53.152;5.846;2023-02-03T11:31:51;23.95;;;6.40;;
52786;SDS011;38661;53.152;5.846;2023-02-03T11:34:19;36.05;;;8.23;;
52786;SDS011;38661;53.152;5.846;2023-02-03T11:36:50;30.58;;;7.43;;
52786;SDS011;38661;53.152;5.846;2023-02-03T11:39:18;31.77;;;8.20;;
52786;SDS011;38661;53.152;5.846;2023-02-03T11:41:44;36.25;;;8.15;;
52786;SDS011;38661;53.152;5.846;2023-02-03T11:44:16;28.77;;;7.88;;
52786;SDS011;38661;53.152;5.846;2023-02-03T11:46:42;40.78;;;9.07;;
52786;SDS011;38661;53.152;5.846;2023-02-03T11:49:26;30.73;;;7.03;;
52786;SDS011;38661;53.152;5.846;2023-02-03T11:54:47;37.78;;;8.07;;
52786;SDS011;38661;53.152;5.846;2023-02-03T12:00:15;33.00;;;7.97;;
52786;SDS011;38661;53.152;5.846;2023-02-03T12:08:53;32.47;;;9.95;;
52786;SDS011;38661;53.152;5.846;2023-02-03T12:14:21;43.53;;;9.30;;
52786;SDS011;38661;53.152;5.846;2023-02-03T12:22:42;31.60;;;7.82;;
52786;SDS011;38661;53.152;5.846;2023-02-03T12:28:13;45.15;;;10.52;;
52786;SDS011;38661;53.152;5.846;2023-02-03T12:31:43;38.00;;;8.15;;
52786;SDS011;38661;53.152;5.846;2023-02-03T12:34:07;35.78;;;9.18;;
52786;SDS011;38661;53.152;5.846;2023-02-03T12:36:40;36.42;;;8.80;;
52786;SDS011;38661;53.152;5.846;2023-02-03T12:42:01;40.95;;;8.05;;
52786;SDS011;38661;53.152;5.846;2023-02-03T12:44:33;44.22;;;8.50;;
52786;SDS011;38661;53.152;5.846;2023-02-03T12:47:29;44.00;;;8.77;;
52786;SDS011;38661;53.152;5.846;2023-02-03T12:50:48;30.10;;;7.00;;
52786;SDS011;38661;53.152;5.846;2023-02-03T12:53:00;38.92;;;10.73;;
52786;SDS011;38661;53.152;5.846;2023-02-03T12:55:41;35.85;;;8.82;;
52786;SDS011;38661;53.152;5.846;2023-02-03T13:01:21;34.92;;;7.57;;
52786;SDS011;38661;53.152;5.846;2023-02-03T13:07:29;29.17;;;7.68;;
52786;SDS011;38661;53.152;5.846;2023-02-03T13:12:30;27.33;;;5.78;;
52786;SDS011;38661;53.152;5.846;2023-02-03T13:15:37;38.30;;;6.88;;
52786;SDS011;38661;53.152;5.846;2023-02-03T13:18:26;27.25;;;8.00;;
52786;SDS011;38661;53.152;5.846;2023-02-03T13:20:56;32.97;;;7.80;;
52786;SDS011;38661;53.152;5.846;2023-02-03T13:23:22;25.33;;;6.20;;
52786;SDS011;38661;53.152;5.846;2023-02-03T13:28:32;32.42;;;6.90;;
52786;SDS011;38661;53.152;5.846;2023-02-03T13:31:20;30.15;;;8.38;;
52786;SDS011;38661;53.152;5.846;2023-02-03T13:39:32;38.95;;;7.15;;
52786;SDS011;38661;53.152;5.846;2023-02-03T13:42:17;35.85;;;7.72;;
52786;SDS011;38661;53.152;5.846;2023-02-03T13:44:47;31.80;;;6.22;;
52786;SDS011;38661;53.152;5.846;2023-02-03T13:47:28;23.70;;;5.55;;
52786;SDS011;38661;53.152;5.846;2023-02-03T13:50:03;32.90;;;7.78;;
52786;SDS011;38661;53.152;5.846;2023-02-03T13:52:35;29.58;;;6.75;;
52786;SDS011;38661;53.152;5.846;2023-02-03T13:55:18;27.02;;;5.97;;
52786;SDS011;38661;53.152;5.846;2023-02-03T13:57:55;29.80;;;7.90;;
52786;SDS011;38661;53.152;5.846;2023-02-03T14:00:57;28.05;;;7.18;;
52786;SDS011;38661;53.152;5.846;2023-02-03T14:03:14;27.80;;;5.55;;
52786;SDS011;38661;53.152;5.846;2023-02-03T14:06:03;33.40;;;6.80;;
52786;SDS011;38661;53.152;5.846;2023-02-03T14:16:37;25.35;;;5.68;;
52786;SDS011;38661;53.152;5.846;2023-02-03T14:19:11;23.77;;;5.25;;
52786;SDS011;38661;53.152;5.846;2023-02-03T14:22:07;23.60;;;5.53;;
52786;SDS011;38661;53.152;5.846;2023-02-03T14:24:40;19.33;;;4.28;;
52786;SDS011;38661;53.152;5.846;2023-02-03T14:29:44;25.52;;;5.03;;
52786;SDS011;38661;53.152;5.846;2023-02-03T14:32:10;21.73;;;3.95;;
52786;SDS011;38661;53.152;5.846;2023-02-03T14:34:44;13.32;;;3.97;;
52786;SDS011;38661;53.152;5.846;2023-02-03T14:37:22;19.60;;;4.47;;
52786;SDS011;38661;53.152;5.846;2023-02-03T14:45:53;22.35;;;5.00;;
52786;SDS011;38661;53.152;5.846;2023-02-03T14:52:13;22.88;;;5.53;;
52786;SDS011;38661;53.152;5.846;2023-02-03T14:59:47;29.67;;;5.93;;
52786;SDS011;38661;53.152;5.846;2023-02-03T15:02:35;26.58;;;6.40;;
52786;SDS011;38661;53.152;5.846;2023-02-03T15:07:56;28.85;;;8.60;;
52786;SDS011;38661;53.152;5.846;2023-02-03T15:12:55;33.85;;;8.93;;
52786;SDS011;38661;53.152;5.846;2023-02-03T15:15:23;33.63;;;9.73;;
52786;SDS011;38661;53.152;5.846;2023-02-03T15:17:54;43.75;;;9.23;;
52786;SDS011;38661;53.152;5.846;2023-02-03T15:20:32;38.65;;;8.32;;
52786;SDS011;38661;53.152;5.846;2023-02-03T15:23:27;39.10;;;6.65;;
52786;SDS011;38661;53.152;5.846;2023-02-03T15:25:55;45.40;;;10.88;;
52786;SDS011;38661;53.152;5.846;2023-02-03T15:28:23;29.00;;;6.50;;
52786;SDS011;38661;53.152;5.846;2023-02-03T15:33:29;47.65;;;10.25;;
52786;SDS011;38661;53.152;5.846;2023-02-03T15:35:58;42.72;;;8.52;;
52786;SDS011;38661;53.152;5.846;2023-02-03T15:38:30;29.63;;;7.30;;
52786;SDS011;38661;53.152;5.846;2023-02-03T15:41:00;36.47;;;9.82;;
52786;SDS011;38661;53.152;5.846;2023-02-03T15:43:31;34.83;;;7.57;;
52786;SDS011;38661;53.152;5.846;2023-02-03T15:46:05;25.20;;;6.93;;
52786;SDS011;38661;53.152;5.846;2023-02-03T15:53:43;30.38;;;7.53;;
52786;SDS011;38661;53.152;5.846;2023-02-03T15:56:21;32.88;;;8.52;;
52786;SDS011;38661;53.152;5.846;2023-02-03T15:58:54;29.20;;;8.15;;
52786;SDS011;38661;53.152;5.846;2023-02-03T16:01:22;41.40;;;9.45;;
52786;SDS011;38661;53.152;5.846;2023-02-03T16:03:54;34.65;;;8.02;;
52786;SDS011;38661;53.152;5.846;2023-02-03T16:06:26;39.40;;;7.63;;
52786;SDS011;38661;53.152;5.846;2023-02-03T16:08:59;25.17;;;6.60;;
52786;SDS011;38661;53.152;5.846;2023-02-03T16:11:27;29.35;;;5.97;;
52786;SDS011;38661;53.152;5.846;2023-02-03T16:13:55;34.65;;;7.30;;
52786;SDS011;38661;53.152;5.846;2023-02-03T16:16:25;36.90;;;8.43;;
52786;SDS011;38661;53.152;5.846;2023-02-03T16:18:54;27.70;;;5.72;;
52786;SDS011;38661;53.152;5.846;2023-02-03T16:21:50;30.25;;;7.38;;
52786;SDS011;38661;53.152;5.846;2023-02-03T16:29:50;43.15;;;10.57;;
52786;SDS011;38661;53.152;5.846;2023-02-03T16:33:13;26.20;;;6.82;;
52786;SDS011;38661;53.152;5.846;2023-02-03T16:36:09;43.97;;;9.35;;
52786;SDS011;38661;53.152;5.846;2023-02-03T16:38:55;30.48;;;6.55;;
52786;SDS011;38661;53.152;5.846;2023-02-03T16:41:43;40.10;;;8.00;;
52786;SDS011;38661;53.152;5.846;2023-02-03T16:44:27;37.50;;;7.22;;
52786;SDS011;38661;53.152;5.846;2023-02-03T16:47:20;35.15;;;7.22;;
52786;SDS011;38661;53.152;5.846;2023-02-03T16:50:13;27.58;;;6.00;;
52786;SDS011;38661;53.152;5.846;2023-02-03T16:52:58;42.35;;;9.57;;
52786;SDS011;38661;53.152;5.846;2023-02-03T16:55:24;34.80;;;7.93;;
52786;SDS011;38661;53.152;5.846;2023-02-03T16:57:50;34.30;;;8.63;;
52786;SDS011;38661;53.152;5.846;2023-02-03T17:00:16;36.35;;;7.88;;
52786;SDS011;38661;53.152;5.846;2023-02-03T17:02:44;42.15;;;7.30;;
52786;SDS011;38661;53.152;5.846;2023-02-03T17:05:10;34.33;;;7.50;;
52786;SDS011;38661;53.152;5.846;2023-02-03T17:07:36;35.03;;;8.18;;
52786;SDS011;38661;53.152;5.846;2023-02-03T17:10:01;35.53;;;7.95;;